Aviation Digital Data Service (ADDS)

Output produced by METARs form (2124 UTC 20 August 2019)
found at http://www.aviationweather.gov/metar/data/
 
METAR text: RJOR 202110Z VRB01KT 9999 -SHRA FEW002 SCT030 BKN045 25/24 Q1009 RMK 1ST002 3CU030 5CU045 A2981
Conditions at: RJOR (TOTTORI AIRPORT , JP) observed 2110 UTC 20 August 2019
Temperature: 25.0°C (77°F)
Dewpoint: 24.0°C (75°F) [RH = 94%]
Pressure (altimeter): 29.79 inches Hg (1009.0 mb)
Winds: variable direction winds at 1 MPH (1 knots; 0.5 m/s)
Visibility: 6 or more miles (10+ km)
Ceiling: 4500 feet AGL
Clouds: few clouds at 200 feet AGL
scattered clouds at 3000 feet AGL
broken clouds at 4500 feet AGL
Weather: -SHRA  (light rain showers)

METAR text: RJOR 201200Z VRB02KT 9999 FEW010 SCT050 BKN100 26/24 Q1010
Conditions at: RJOR (TOTTORI AIRPORT , JP) observed 1200 UTC 20 August 2019
Temperature: 26.0°C (79°F)
Dewpoint: 24.0°C (75°F) [RH = 89%]
Pressure (altimeter): 29.82 inches Hg (1010.0 mb)
Winds: variable direction winds at 2 MPH (2 knots; 1.0 m/s)
Visibility: 6 or more miles (10+ km)
Ceiling: 10000 feet AGL
Clouds: few clouds at 1000 feet AGL
scattered clouds at 5000 feet AGL
broken clouds at 10000 feet AGL
Weather: no significant weather observed at this time

METAR text: RJOR 201100Z 03008KT 9999 FEW008 SCT050 BKN150 26/24 Q1010
Conditions at: RJOR (TOTTORI AIRPORT , JP) observed 1100 UTC 20 August 2019
Temperature: 26.0°C (79°F)
Dewpoint: 24.0°C (75°F) [RH = 89%]
Pressure (altimeter): 29.82 inches Hg (1010.0 mb)
Winds: from the NNE (30 degrees) at 9 MPH (8 knots; 4.1 m/s)
Visibility: 6 or more miles (10+ km)
Ceiling: 15000 feet AGL
Clouds: few clouds at 800 feet AGL
scattered clouds at 5000 feet AGL
broken clouds at 15000 feet AGL
Weather: no significant weather observed at this time

METAR text: RJOR 201000Z 04006KT 9999 FEW015 BKN150 BKN170 26/25 Q1009
Conditions at: RJOR (TOTTORI AIRPORT , JP) observed 1000 UTC 20 August 2019
Temperature: 26.0°C (79°F)
Dewpoint: 25.0°C (77°F) [RH = 94%]
Pressure (altimeter): 29.79 inches Hg (1009.0 mb)
Winds: from the NE (40 degrees) at 7 MPH (6 knots; 3.1 m/s)
Visibility: 6 or more miles (10+ km)
Ceiling: 15000 feet AGL
Clouds: few clouds at 1500 feet AGL
broken clouds at 15000 feet AGL
broken clouds at 17000 feet AGL
Weather: no significant weather observed at this time

METAR text: RJOR 200900Z 36004KT 9999 FEW015 SCT150 BKN170 26/24 Q1010
Conditions at: RJOR (TOTTORI AIRPORT , JP) observed 0900 UTC 20 August 2019
Temperature: 26.0°C (79°F)
Dewpoint: 24.0°C (75°F) [RH = 89%]
Pressure (altimeter): 29.82 inches Hg (1010.0 mb)
Winds: from the N (360 degrees) at 5 MPH (4 knots; 2.1 m/s)
Visibility: 6 or more miles (10+ km)
Ceiling: 17000 feet AGL
Clouds: few clouds at 1500 feet AGL
scattered clouds at 15000 feet AGL
broken clouds at 17000 feet AGL
Weather: no significant weather observed at this time

METAR text: RJOR 200800Z 02004KT 9999 FEW015 SCT150 BKN170 26/24 Q1009
Conditions at: RJOR (TOTTORI AIRPORT , JP) observed 0800 UTC 20 August 2019
Temperature: 26.0°C (79°F)
Dewpoint: 24.0°C (75°F) [RH = 89%]
Pressure (altimeter): 29.79 inches Hg (1009.0 mb)
Winds: from the NNE (20 degrees) at 5 MPH (4 knots; 2.1 m/s)
Visibility: 6 or more miles (10+ km)
Ceiling: 17000 feet AGL
Clouds: few clouds at 1500 feet AGL
scattered clouds at 15000 feet AGL
broken clouds at 17000 feet AGL
Weather: no significant weather observed at this time

METAR text: RJOR 200700Z 06005KT 9999 FEW015 SCT100 BKN170 27/24 Q1010
Conditions at: RJOR (TOTTORI AIRPORT , JP) observed 0700 UTC 20 August 2019
Temperature: 27.0°C (81°F)
Dewpoint: 24.0°C (75°F) [RH = 84%]
Pressure (altimeter): 29.82 inches Hg (1010.0 mb)
Winds: from the ENE (60 degrees) at 6 MPH (5 knots; 2.6 m/s)
Visibility: 6 or more miles (10+ km)
Ceiling: 17000 feet AGL
Clouds: few clouds at 1500 feet AGL
scattered clouds at 10000 feet AGL
broken clouds at 17000 feet AGL
Weather: no significant weather observed at this time

METAR text: RJOR 200600Z 06007KT 9999 FEW015 SCT130 BKN170 26/25 Q1009
Conditions at: RJOR (TOTTORI AIRPORT , JP) observed 0600 UTC 20 August 2019
Temperature: 26.0°C (79°F)
Dewpoint: 25.0°C (77°F) [RH = 94%]
Pressure (altimeter): 29.79 inches Hg (1009.0 mb)
Winds: from the ENE (60 degrees) at 8 MPH (7 knots; 3.6 m/s)
Visibility: 6 or more miles (10+ km)
Ceiling: 17000 feet AGL
Clouds: few clouds at 1500 feet AGL
scattered clouds at 13000 feet AGL
broken clouds at 17000 feet AGL
Weather: no significant weather observed at this time

METAR text: RJOR 200500Z 05009KT 9999 -SHRA FEW015 SCT040 BKN080 26/24 Q1009
Conditions at: RJOR (TOTTORI AIRPORT , JP) observed 0500 UTC 20 August 2019
Temperature: 26.0°C (79°F)
Dewpoint: 24.0°C (75°F) [RH = 89%]
Pressure (altimeter): 29.79 inches Hg (1009.0 mb)
Winds: from the NE (50 degrees) at 10 MPH (9 knots; 4.6 m/s)
Visibility: 6 or more miles (10+ km)
Ceiling: 8000 feet AGL
Clouds: few clouds at 1500 feet AGL
scattered clouds at 4000 feet AGL
broken clouds at 8000 feet AGL
Weather: -SHRA  (light rain showers)

METAR text: RJOR 200400Z 14004KT 100V200 9999 FEW015 SCT080 BKN150 28/25 Q1009
Conditions at: RJOR (TOTTORI AIRPORT , JP) observed 0400 UTC 20 August 2019
Temperature: 28.0°C (82°F)
Dewpoint: 25.0°C (77°F) [RH = 84%]
Pressure (altimeter): 29.79 inches Hg (1009.0 mb)
Winds: from the SE (140 degrees) at 5 MPH (4 knots; 2.1 m/s)
Visibility: 6 or more miles (10+ km)
Ceiling: 15000 feet AGL
Clouds: few clouds at 1500 feet AGL
scattered clouds at 8000 feet AGL
broken clouds at 15000 feet AGL
Weather: no significant weather observed at this time

METAR text: RJOR 200300Z 15007KT 9999 FEW015 SCT080 BKN150 27/24 Q1010
Conditions at: RJOR (TOTTORI AIRPORT , JP) observed 0300 UTC 20 August 2019
Temperature: 27.0°C (81°F)
Dewpoint: 24.0°C (75°F) [RH = 84%]
Pressure (altimeter): 29.82 inches Hg (1010.0 mb)
Winds: from the SSE (150 degrees) at 8 MPH (7 knots; 3.6 m/s)
Visibility: 6 or more miles (10+ km)
Ceiling: 15000 feet AGL
Clouds: few clouds at 1500 feet AGL
scattered clouds at 8000 feet AGL
broken clouds at 15000 feet AGL
Weather: no significant weather observed at this time

METAR text: RJOR 200200Z 16004KT 9999 FEW010 SCT070 BKN150 26/24 Q1011
Conditions at: RJOR (TOTTORI AIRPORT , JP) observed 0200 UTC 20 August 2019
Temperature: 26.0°C (79°F)
Dewpoint: 24.0°C (75°F) [RH = 89%]
Pressure (altimeter): 29.85 inches Hg (1011.0 mb)
Winds: from the SSE (160 degrees) at 5 MPH (4 knots; 2.1 m/s)
Visibility: 6 or more miles (10+ km)
Ceiling: 15000 feet AGL
Clouds: few clouds at 1000 feet AGL
scattered clouds at 7000 feet AGL
broken clouds at 15000 feet AGL
Weather: no significant weather observed at this time

METAR text: RJOR 200100Z 25003KT 200V300 9999 -SHRA FEW005 SCT015 BKN030 25/24 Q1012
Conditions at: RJOR (TOTTORI AIRPORT , JP) observed 0100 UTC 20 August 2019
Temperature: 25.0°C (77°F)
Dewpoint: 24.0°C (75°F) [RH = 94%]
Pressure (altimeter): 29.88 inches Hg (1012.0 mb)
Winds: from the WSW (250 degrees) at 3 MPH (3 knots; 1.5 m/s)
Visibility: 6 or more miles (10+ km)
Ceiling: 3000 feet AGL
Clouds: few clouds at 500 feet AGL
scattered clouds at 1500 feet AGL
broken clouds at 3000 feet AGL
Weather: -SHRA  (light rain showers)

METAR text: RJOR 200014Z 32005KT 5000 R10/2000U -SHRA BR FEW002 SCT010 BKN020 FEW025CB 24/24 Q1012 RMK 1ST002 3ST010 5CU020 1CB025 A2988 CB 10KM SW MOV NE
Conditions at: RJOR (TOTTORI AIRPORT , JP) observed 0014 UTC 20 August 2019
Temperature: 24.0°C (75°F)
Dewpoint: 24.0°C (75°F) [RH = 100%]
Pressure (altimeter): 29.88 inches Hg (1012.0 mb)
Winds: from the NW (320 degrees) at 6 MPH (5 knots; 2.6 m/s)
Visibility: 3 miles ( 5 km)
Ceiling: 2000 feet AGL
Clouds: few clouds at 200 feet AGL
scattered clouds at 1000 feet AGL
broken clouds at 2000 feet AGL
few clouds at 2500 feet AGL
Weather: -SHRA BR  (light rain showers, mist)

METAR text: RJOR 200011Z 32006KT 270V350 4000 R10/2000N SHRA BR FEW002 SCT010 BKN020 SCT025CB 24/24 Q1012 RMK 1ST002 3ST010 5CU020 3CB025 A2988 CB OHD MOV NE
Conditions at: RJOR (TOTTORI AIRPORT , JP) observed 0011 UTC 20 August 2019
Temperature: 24.0°C (75°F)
Dewpoint: 24.0°C (75°F) [RH = 100%]
Pressure (altimeter): 29.88 inches Hg (1012.0 mb)
Winds: from the NW (320 degrees) at 7 MPH (6 knots; 3.1 m/s)
Visibility: 2.49 miles (4.01 km)
Ceiling: 2000 feet AGL
Clouds: few clouds at 200 feet AGL
scattered clouds at 1000 feet AGL
broken clouds at 2000 feet AGL
scattered clouds at 2500 feet AGL
Weather: SHRA BR  (rain showers, mist)

METAR text: RJOR 200009Z 32007KT 260V350 3000 R10/2000N +SHRA BR FEW002 SCT010 BKN020 SCT025CB 24/24 Q1012 RMK 1ST002 3ST010 5CU020 3CB025 A2988 CB OHD MOV NE RI++
Conditions at: RJOR (TOTTORI AIRPORT , JP) observed 0009 UTC 20 August 2019
Temperature: 24.0°C (75°F)
Dewpoint: 24.0°C (75°F) [RH = 100%]
Pressure (altimeter): 29.88 inches Hg (1012.0 mb)
Winds: from the NW (320 degrees) at 8 MPH (7 knots; 3.6 m/s)
Visibility: 1.86 miles (2.99 km)
Ceiling: 2000 feet AGL
Clouds: few clouds at 200 feet AGL
scattered clouds at 1000 feet AGL
broken clouds at 2000 feet AGL
scattered clouds at 2500 feet AGL
Weather: +SHRA BR  (heavy rain showers, mist)

METAR text: RJOR 200003Z 29006KT 250V350 2000 R10/1000VP2000U +TSRA BR FEW002 SCT005 BKN010 SCT025CB 24/24 Q1011 RMK 1ST002 3ST005 5CU010 3CB025 A2987 FBL TS 15KM N MOV NE CB OHD MOV NE RI++
Conditions at: RJOR (TOTTORI AIRPORT , JP) observed 0003 UTC 20 August 2019
Temperature: 24.0°C (75°F)
Dewpoint: 24.0°C (75°F) [RH = 100%]
Pressure (altimeter): 29.85 inches Hg (1011.0 mb)
Winds: from the WNW (290 degrees) at 7 MPH (6 knots; 3.1 m/s)
Visibility: 1.24 miles (2.00 km)
Ceiling: 1000 feet AGL
Clouds: few clouds at 200 feet AGL
scattered clouds at 500 feet AGL
broken clouds at 1000 feet AGL
scattered clouds at 2500 feet AGL
Weather: +TSRA BR  (heavy rain associated with thunderstorm(s), mist)

METAR text: RJOR 200000Z 28006KT 250V330 1500 R10/1000VP2000U +TSRA BR FEW002 SCT005 BKN010 SCT025CB 24/24 Q1012
Conditions at: RJOR (TOTTORI AIRPORT , JP) observed 0000 UTC 20 August 2019
Temperature: 24.0°C (75°F)
Dewpoint: 24.0°C (75°F) [RH = 100%]
Pressure (altimeter): 29.88 inches Hg (1012.0 mb)
Winds: from the W (280 degrees) at 7 MPH (6 knots; 3.1 m/s)
Visibility: 0.93 miles (1.50 km)
Ceiling: 1000 feet AGL
Clouds: few clouds at 200 feet AGL
scattered clouds at 500 feet AGL
broken clouds at 1000 feet AGL
scattered clouds at 2500 feet AGL
Weather: +TSRA BR  (heavy rain associated with thunderstorm(s), mist)

METAR text: RJOR 192340Z 29008KT 2000 R10/2000N TSRA BR FEW005 SCT010 BKN020 FEW025CB 25/24 Q1011 RMK 1ST005 3CU010 5CU020 2CB025 A2987 FBL TS 15KM N MOV NE CB 10KM W MOV NE
Conditions at: RJOR (TOTTORI AIRPORT , JP) observed 2340 UTC 19 August 2019
Temperature: 25.0°C (77°F)
Dewpoint: 24.0°C (75°F) [RH = 94%]
Pressure (altimeter): 29.85 inches Hg (1011.0 mb)
Winds: from the WNW (290 degrees) at 9 MPH (8 knots; 4.1 m/s)
Visibility: 1.24 miles (2.00 km)
Ceiling: 2000 feet AGL
Clouds: few clouds at 500 feet AGL
scattered clouds at 1000 feet AGL
broken clouds at 2000 feet AGL
few clouds at 2500 feet AGL
Weather: TSRA BR  (rain associated with thunderstorm(s), mist)

METAR text: RJOR 192334Z 29006KT 2000 -TSRA BR FEW005 SCT010 BKN020 FEW025CB 25/25 Q1011 RMK 1ST005 3CU010 5CU020 2CB025 A2986 FBL TS 15KM N MOV NE CB 20KM S MOV NE
Conditions at: RJOR (TOTTORI AIRPORT , JP) observed 2334 UTC 19 August 2019
Temperature: 25.0°C (77°F)
Dewpoint: 25.0°C (77°F) [RH = 100%]
Pressure (altimeter): 29.85 inches Hg (1011.0 mb)
Winds: from the WNW (290 degrees) at 7 MPH (6 knots; 3.1 m/s)
Visibility: 1.24 miles (2.00 km)
Ceiling: 2000 feet AGL
Clouds: few clouds at 500 feet AGL
scattered clouds at 1000 feet AGL
broken clouds at 2000 feet AGL
few clouds at 2500 feet AGL
Weather: -TSRA BR  (light rain associated with thunderstorm(s), mist)

METAR text: RJOR 192329Z VRB03KT 3000 -TSRA BR FEW005 SCT010 BKN020 FEW025CB 25/25 Q1011 RMK 1ST005 3CU010 5CU020 2CB025 A2986 FBL TS 15KM N MOV NE CB 20KM S MOV NE
Conditions at: RJOR (TOTTORI AIRPORT , JP) observed 2329 UTC 19 August 2019
Temperature: 25.0°C (77°F)
Dewpoint: 25.0°C (77°F) [RH = 100%]
Pressure (altimeter): 29.85 inches Hg (1011.0 mb)
Winds: variable direction winds at 3 MPH (3 knots; 1.5 m/s)
Visibility: 1.86 miles (2.99 km)
Ceiling: 2000 feet AGL
Clouds: few clouds at 500 feet AGL
scattered clouds at 1000 feet AGL
broken clouds at 2000 feet AGL
few clouds at 2500 feet AGL
Weather: -TSRA BR  (light rain associated with thunderstorm(s), mist)

METAR text: RJOR 192300Z VRB02KT 5000 -SHRA BR FEW005 SCT025 BKN035 25/25 Q1010
Conditions at: RJOR (TOTTORI AIRPORT , JP) observed 2300 UTC 19 August 2019
Temperature: 25.0°C (77°F)
Dewpoint: 25.0°C (77°F) [RH = 100%]
Pressure (altimeter): 29.82 inches Hg (1010.0 mb)
Winds: variable direction winds at 2 MPH (2 knots; 1.0 m/s)
Visibility: 3 miles ( 5 km)
Ceiling: 3500 feet AGL
Clouds: few clouds at 500 feet AGL
scattered clouds at 2500 feet AGL
broken clouds at 3500 feet AGL
Weather: -SHRA BR  (light rain showers, mist)

METAR text: RJOR 192213Z VRB02KT 5000 -SHRA BR FEW005 SCT025 BKN035 25/25 Q1010 RMK 1ST005 3CU025 5CU035 A2984
Conditions at: RJOR (TOTTORI AIRPORT , JP) observed 2213 UTC 19 August 2019
Temperature: 25.0°C (77°F)
Dewpoint: 25.0°C (77°F) [RH = 100%]
Pressure (altimeter): 29.82 inches Hg (1010.0 mb)
Winds: variable direction winds at 2 MPH (2 knots; 1.0 m/s)
Visibility: 3 miles ( 5 km)
Ceiling: 3500 feet AGL
Clouds: few clouds at 500 feet AGL
scattered clouds at 2500 feet AGL
broken clouds at 3500 feet AGL
Weather: -SHRA BR  (light rain showers, mist)

METAR text: RJOR 192200Z VRB01KT 3500 -SHRA BR FEW005 SCT025 BKN035 25/25 Q1010
Conditions at: RJOR (TOTTORI AIRPORT , JP) observed 2200 UTC 19 August 2019
Temperature: 25.0°C (77°F)
Dewpoint: 25.0°C (77°F) [RH = 100%]
Pressure (altimeter): 29.82 inches Hg (1010.0 mb)
Winds: variable direction winds at 1 MPH (1 knots; 0.5 m/s)
Visibility: 2.17 miles (3.49 km)
Ceiling: 3500 feet AGL
Clouds: few clouds at 500 feet AGL
scattered clouds at 2500 feet AGL
broken clouds at 3500 feet AGL
Weather: -SHRA BR  (light rain showers, mist)

METAR text: RJOR 192130Z VRB01KT 2000 SHRA BR FEW005 SCT020 BKN030 25/25 Q1010
Conditions at: RJOR (TOTTORI AIRPORT , JP) observed 2130 UTC 19 August 2019
Temperature: 25.0°C (77°F)
Dewpoint: 25.0°C (77°F) [RH = 100%]
Pressure (altimeter): 29.82 inches Hg (1010.0 mb)
Winds: variable direction winds at 1 MPH (1 knots; 0.5 m/s)
Visibility: 1.24 miles (2.00 km)
Ceiling: 3000 feet AGL
Clouds: few clouds at 500 feet AGL
scattered clouds at 2000 feet AGL
broken clouds at 3000 feet AGL
Weather: SHRA BR  (rain showers, mist)

METAR text: RJOR 192125Z VRB02KT 2000 -SHRA BR FEW005 SCT020 BKN030 25/25 Q1010 RMK 1ST005 3CU020 5CU030 A2984
Conditions at: RJOR (TOTTORI AIRPORT , JP) observed 2125 UTC 19 August 2019
Temperature: 25.0°C (77°F)
Dewpoint: 25.0°C (77°F) [RH = 100%]
Pressure (altimeter): 29.82 inches Hg (1010.0 mb)
Winds: variable direction winds at 2 MPH (2 knots; 1.0 m/s)
Visibility: 1.24 miles (2.00 km)
Ceiling: 3000 feet AGL
Clouds: few clouds at 500 feet AGL
scattered clouds at 2000 feet AGL
broken clouds at 3000 feet AGL
Weather: -SHRA BR  (light rain showers, mist)

METAR text: RJOR 192110Z VRB02KT 3500 -SHRA BR FEW005 SCT025 BKN040 25/25 Q1010 RMK 1ST005 3CU025 5CU040 A2984
Conditions at: RJOR (TOTTORI AIRPORT , JP) observed 2110 UTC 19 August 2019
Temperature: 25.0°C (77°F)
Dewpoint: 25.0°C (77°F) [RH = 100%]
Pressure (altimeter): 29.82 inches Hg (1010.0 mb)
Winds: variable direction winds at 2 MPH (2 knots; 1.0 m/s)
Visibility: 2.17 miles (3.49 km)
Ceiling: 4000 feet AGL
Clouds: few clouds at 500 feet AGL
scattered clouds at 2500 feet AGL
broken clouds at 4000 feet AGL
Weather: -SHRA BR  (light rain showers, mist)

METAR text: RJOR 191200Z VRB01KT 9999 FEW020 SCT180 BKN/// 26/24 Q1009
Conditions at: RJOR (TOTTORI AIRPORT , JP) observed 1200 UTC 19 August 2019
Temperature: 26.0°C (79°F)
Dewpoint: 24.0°C (75°F) [RH = 89%]
Pressure (altimeter): 29.79 inches Hg (1009.0 mb)
Winds: variable direction winds at 1 MPH (1 knots; 0.5 m/s)
Visibility: 6 or more miles (10+ km)
Ceiling: at least 12,000 feet AGL
Clouds: few clouds at 2000 feet AGL
scattered clouds at 18000 feet AGL
Weather: no significant weather observed at this time

METAR text: RJOR 191100Z VRB02KT 9999 FEW020 SCT050 BKN180 26/24 Q1009
Conditions at: RJOR (TOTTORI AIRPORT , JP) observed 1100 UTC 19 August 2019
Temperature: 26.0°C (79°F)
Dewpoint: 24.0°C (75°F) [RH = 89%]
Pressure (altimeter): 29.79 inches Hg (1009.0 mb)
Winds: variable direction winds at 2 MPH (2 knots; 1.0 m/s)
Visibility: 6 or more miles (10+ km)
Ceiling: 18000 feet AGL
Clouds: few clouds at 2000 feet AGL
scattered clouds at 5000 feet AGL
broken clouds at 18000 feet AGL
Weather: no significant weather observed at this time

METAR text: RJOR 191000Z VRB01KT 9999 FEW020 SCT130 BKN150 26/24 Q1009
Conditions at: RJOR (TOTTORI AIRPORT , JP) observed 1000 UTC 19 August 2019
Temperature: 26.0°C (79°F)
Dewpoint: 24.0°C (75°F) [RH = 89%]
Pressure (altimeter): 29.79 inches Hg (1009.0 mb)
Winds: variable direction winds at 1 MPH (1 knots; 0.5 m/s)
Visibility: 6 or more miles (10+ km)
Ceiling: 15000 feet AGL
Clouds: few clouds at 2000 feet AGL
scattered clouds at 13000 feet AGL
broken clouds at 15000 feet AGL
Weather: no significant weather observed at this time